Clima Ilopango International Airport
Currently
Currently
Currently
METAR
MSSS 191850Z 33007KT 9999 FEW042 29/18 Q1015 A3000 MSSS 191750Z 33004KT 9999 FEW039 27/19 Q1017 A3003 MSSS 191650Z 03007KT 9999 FEW033 27/19 Q1017 A3005 TAF MSSS 191525Z 1918/2018 36009KT 9999 SCT043 TX30/1919Z TN20/2012Z FM200000 FEW060 FM200600 CAVOK TEMPO 2013/2018 36008G20KT
TAF
MSSS 191525Z 1918/2018 36009KT 9999 SCT043 TX30/1919Z TN20/2012Z FM200000 FEW060 FM200600 CAVOK TEMPO 2013/2018 36008G20KT

Cámaras Aeroclub

Norte

Este

Sur

Oeste

AIS/AIP El Salvador

Autoridad de Aviación Civil (AAC) El Salvador

VER DOCUMENTO